createdAt,value
2023-04-20T00:02:15.565Z,102455.81
2023-04-20T00:04:42.670Z,102452.41
2023-04-20T00:07:09.536Z,102452.38
2023-04-20T00:09:36.082Z,102441.47
2023-04-20T00:12:02.588Z,102442.22
2023-04-20T00:14:29.126Z,102435.75
2023-04-20T00:16:55.856Z,102430.88
2023-04-20T00:19:22.376Z,102425.59
2023-04-20T00:21:49.026Z,102420.69
2023-04-20T00:24:15.761Z,102413.84
2023-04-20T00:26:42.176Z,102410.09
2023-04-20T00:29:08.602Z,102406.69
2023-04-20T00:31:35.008Z,102394.25
2023-04-20T00:34:01.429Z,102390.09
2023-04-20T00:36:27.899Z,102393.88
2023-04-20T00:38:54.305Z,102384.44
2023-04-20T00:41:21.330Z,102379.91
2023-04-20T00:43:52.404Z,102380.25
2023-04-20T00:46:20.811Z,102373.84
2023-04-20T00:48:49.649Z,102367.38
2023-04-20T00:51:16.225Z,102360.25
2023-04-20T00:53:42.773Z,102360.66
2023-04-20T00:56:09.375Z,102356.44
2023-04-20T00:58:35.999Z,102348.50
2023-04-20T01:01:02.439Z,102343.56
2023-04-20T01:03:29.013Z,102342.06
2023-04-20T01:05:55.778Z,102333.75
2023-04-20T01:08:26.412Z,102332.63
2023-04-20T01:10:54.194Z,102330.69
2023-04-20T01:13:20.753Z,102324.72
2023-04-20T01:15:47.236Z,102324.72
2023-04-20T01:18:14.251Z,102324.72
2023-04-20T01:20:40.743Z,102317.16
2023-04-20T01:23:07.204Z,102313.75
2023-04-20T01:25:33.641Z,102314.16
2023-04-20T01:28:00.452Z,102305.81
2023-04-20T01:30:26.898Z,102299.00
2023-04-20T01:32:53.398Z,102282.78
2023-04-20T01:35:19.857Z,102291.47
2023-04-20T01:37:46.357Z,102286.56
2023-04-20T01:40:13.777Z,102279.72
2023-04-20T01:42:40.552Z,102278.94
2023-04-20T01:45:07.520Z,102272.97
2023-04-20T01:47:34.710Z,102276.72
2023-04-20T01:50:01.184Z,102268.47
2023-04-20T01:52:27.624Z,102265.38
2023-04-20T01:54:54.101Z,102260.09
2023-04-20T01:57:20.549Z,102259.00
2023-04-20T01:59:46.964Z,102262.75
2023-04-20T02:02:13.451Z,102251.41
2023-04-20T02:04:40.024Z,102253.69
2023-04-20T02:07:06.433Z,102254.44
2023-04-20T02:09:32.877Z,102246.47
2023-04-20T02:11:59.302Z,102249.13
2023-04-20T02:14:25.765Z,102241.19
2023-04-20T02:16:53.401Z,102242.34
2023-04-20T02:19:19.944Z,102232.16
2023-04-20T02:21:46.354Z,102239.69
2023-04-20T02:24:12.793Z,102230.28
2023-04-20T02:26:39.200Z,102221.22
2023-04-20T02:29:05.737Z,102223.88
2023-04-20T02:31:32.221Z,102218.97
2023-04-20T02:33:58.761Z,102216.31
2023-04-20T02:36:25.178Z,102208.38
2023-04-20T02:38:51.624Z,102199.69
2023-04-20T02:41:18.888Z,102202.34
2023-04-20T02:43:45.395Z,102201.97
2023-04-20T02:46:11.877Z,102195.53
2023-04-20T02:48:38.310Z,102197.81
2023-04-20T02:51:04.754Z,102197.81
2023-04-20T02:53:31.208Z,102196.69
2023-04-20T02:55:57.690Z,102196.69
2023-04-20T02:58:24.172Z,102192.53
2023-04-20T03:00:50.627Z,102195.53
2023-04-20T03:03:17.706Z,102187.94
2023-04-20T03:05:44.241Z,102181.91
2023-04-20T03:08:10.678Z,102184.53
2023-04-20T03:10:37.294Z,102184.19
2023-04-20T03:13:03.753Z,102180.44
2023-04-20T03:15:30.219Z,102178.91
2023-04-20T03:17:56.714Z,102176.69
2023-04-20T03:20:23.176Z,102175.91
2023-04-20T03:22:49.773Z,102174.75
2023-04-20T03:25:16.380Z,102165.28
2023-04-20T03:27:42.878Z,102167.59
2023-04-20T03:30:09.783Z,102163.84
2023-04-20T03:32:36.355Z,102160.03
2023-04-20T03:35:02.928Z,102161.56
2023-04-20T03:37:29.353Z,102159.31
2023-04-20T03:39:55.769Z,102146.50
2023-04-20T03:42:22.310Z,102149.47
2023-04-20T03:44:48.894Z,102148.72
2023-04-20T03:47:15.556Z,102132.88
2023-04-20T03:49:41.963Z,102137.78
2023-04-20T03:52:08.418Z,102137.06
2023-04-20T03:54:34.835Z,102134.78
2023-04-20T03:57:02.227Z,102133.31
2023-04-20T03:59:28.694Z,102134.44
2023-04-20T04:01:55.239Z,102137.44
2023-04-20T04:04:22.047Z,102128.41
2023-04-20T04:06:48.704Z,102126.50
2023-04-20T04:09:15.413Z,102121.94
2023-04-20T04:11:42.046Z,102123.09
2023-04-20T04:14:08.550Z,102120.78
2023-04-20T04:16:35.028Z,102126.09
2023-04-20T04:19:01.571Z,102119.69
2023-04-20T04:21:28.833Z,102111.78
2023-04-20T04:23:55.860Z,102110.25
2023-04-20T04:26:24.945Z,102110.66
2023-04-20T04:28:51.812Z,102100.81
2023-04-20T04:31:19.659Z,102100.09
2023-04-20T04:33:46.503Z,102100.47
2023-04-20T04:36:15.290Z,102082.69
2023-04-20T04:38:44.575Z,102086.09
2023-04-20T04:41:14.348Z,102076.28
2023-04-20T04:43:42.431Z,102080.06
2023-04-20T04:46:13.251Z,102078.94
2023-04-20T04:48:42.348Z,102071.72
2023-04-20T04:51:09.651Z,102073.25
2023-04-20T04:53:36.126Z,102075.47
2023-04-20T04:56:03.564Z,102075.53
2023-04-20T04:58:30.001Z,102077.06
2023-04-20T05:00:56.505Z,102077.78
2023-04-20T05:03:23.063Z,102077.06
2023-04-20T05:05:49.576Z,102077.78
2023-04-20T05:08:16.270Z,102071.72
2023-04-20T05:10:42.687Z,102070.25
2023-04-20T05:13:09.124Z,102071.78
2023-04-20T05:15:35.605Z,102064.97
2023-04-20T05:18:02.784Z,102064.56
2023-04-20T05:20:29.385Z,102071.72
2023-04-20T05:22:55.985Z,102077.41
2023-04-20T05:25:22.612Z,102077.44
2023-04-20T05:27:49.182Z,102074.38
2023-04-20T05:30:21.409Z,102077.00
2023-04-20T05:32:51.594Z,102070.59
2023-04-20T05:35:19.389Z,102064.19
2023-04-20T05:37:47.388Z,102062.69
2023-04-20T05:40:15.246Z,102062.69
2023-04-20T05:42:41.683Z,102066.09
2023-04-20T05:45:08.904Z,102072.13
2023-04-20T05:47:35.407Z,102065.72
2023-04-20T05:50:02.395Z,102070.25
2023-04-20T05:52:28.820Z,102070.25
2023-04-20T05:54:55.287Z,102063.09
2023-04-20T05:57:23.553Z,102057.41
2023-04-20T05:59:50.615Z,102057.81
2023-04-20T06:02:17.289Z,102056.28
2023-04-20T06:04:44.137Z,102057.03
2023-04-20T06:07:10.752Z,102052.13
2023-04-20T06:09:37.215Z,102041.88
2023-04-20T06:12:03.907Z,102045.66
2023-04-20T06:14:30.318Z,102040.09
2023-04-20T06:16:56.851Z,102031.81
2023-04-20T06:19:23.262Z,102035.97
2023-04-20T06:21:49.783Z,102035.25
2023-04-20T06:24:16.326Z,102041.66
2023-04-20T06:26:42.712Z,102039.38
2023-04-20T06:29:09.322Z,102035.25
2023-04-20T06:31:36.958Z,102050.69
2023-04-20T06:34:03.508Z,102035.63
2023-04-20T06:36:30.660Z,102035.28
2023-04-20T06:38:57.078Z,102035.66
2023-04-20T06:41:24.091Z,102047.38
2023-04-20T06:43:50.566Z,102037.56
2023-04-20T06:46:18.215Z,102040.56
2023-04-20T06:48:44.708Z,102036.81
2023-04-20T06:51:12.987Z,102031.88
2023-04-20T06:53:39.436Z,102041.69
2023-04-20T06:56:06.659Z,102027.00
2023-04-20T06:58:33.105Z,102028.13
2023-04-20T07:00:59.623Z,102016.03
2023-04-20T07:03:26.906Z,102025.47
2023-04-20T07:05:53.462Z,102024.72
2023-04-20T07:08:20.193Z,102061.69
2023-04-20T07:10:46.778Z,102033.00
2023-04-20T07:13:13.270Z,102032.28
2023-04-20T07:15:39.678Z,102032.63
2023-04-20T07:18:06.423Z,102034.88
2023-04-20T07:20:33.433Z,102026.59
2023-04-20T07:22:59.867Z,102030.75
2023-04-20T07:25:26.363Z,102048.44
2023-04-20T07:27:52.979Z,102034.53
2023-04-20T07:30:19.462Z,102035.28
2023-04-20T07:32:46.280Z,102034.16
2023-04-20T07:35:12.705Z,102039.44
2023-04-20T07:37:39.329Z,102031.09
2023-04-20T07:40:06.966Z,102025.47
2023-04-20T07:42:35.155Z,102039.03
2023-04-20T07:45:01.702Z,102049.63
2023-04-20T07:47:28.164Z,102035.63
2023-04-20T07:49:54.880Z,102036.38
2023-04-20T07:52:21.360Z,102036.38
2023-04-20T07:54:47.857Z,102035.66
2023-04-20T07:57:14.349Z,102021.31
2023-04-20T07:59:41.305Z,102033.41
2023-04-20T08:02:08.421Z,102037.16
2023-04-20T08:04:37.638Z,102034.16
2023-04-20T08:07:04.673Z,102030.00
2023-04-20T08:09:31.153Z,102031.88
2023-04-20T08:11:57.664Z,102034.84
2023-04-20T08:14:24.142Z,102020.56
2023-04-20T08:16:50.583Z,102030.38
2023-04-20T08:19:17.018Z,102017.56
2023-04-20T08:21:43.593Z,102014.56
2023-04-20T08:24:10.544Z,102010.03
2023-04-20T08:26:37.209Z,102017.56
2023-04-20T08:29:05.609Z,102006.63
2023-04-20T08:31:32.684Z,102007.38
2023-04-20T08:33:59.185Z,102005.47
2023-04-20T08:36:28.047Z,102010.44
2023-04-20T08:39:19.741Z,102006.66
2023-04-20T08:41:46.850Z,102005.53
2023-04-20T08:44:13.578Z,102007.38
2023-04-20T08:46:45.759Z,102007.78
2023-04-20T08:49:12.971Z,102000.63
2023-04-20T08:51:40.081Z,102006.25
2023-04-20T08:54:07.405Z,101997.94
2023-04-20T08:56:42.055Z,101999.81
2023-04-20T08:59:13.971Z,102006.59
2023-04-20T09:01:41.889Z,101995.31
2023-04-20T09:04:20.110Z,101988.06
2023-04-20T09:06:50.234Z,101988.50
2023-04-20T09:09:17.162Z,101991.19
2023-04-20T09:11:44.030Z,101992.34
2023-04-20T09:14:12.989Z,101991.56
2023-04-20T09:17:05.130Z,101995.72
2023-04-20T09:19:31.913Z,101996.09
2023-04-20T09:22:00.385Z,101994.97
2023-04-20T09:24:34.598Z,101990.44
2023-04-20T09:27:02.771Z,101991.56
2023-04-20T09:29:30.209Z,101995.34
2023-04-20T09:31:56.683Z,101997.63
2023-04-20T09:34:23.915Z,101990.06
2023-04-20T09:36:54.137Z,101988.19
2023-04-20T09:39:24.546Z,101984.00
2023-04-20T09:41:52.481Z,101988.53
2023-04-20T09:44:20.144Z,101983.66
2023-04-20T09:46:47.164Z,101977.59
2023-04-20T09:49:14.824Z,101976.81
2023-04-20T09:51:46.380Z,101980.59
2023-04-20T09:54:14.009Z,101979.50
2023-04-20T09:56:41.190Z,101973.09
2023-04-20T09:59:08.020Z,101966.69
2023-04-20T10:01:36.613Z,101964.41
2023-04-20T10:04:06.794Z,101962.50
2023-04-20T10:06:34.687Z,101967.75
2023-04-20T10:09:02.727Z,101969.31
2023-04-20T10:11:48.835Z,101961.38
2023-04-20T10:14:23.455Z,101958.75
2023-04-20T10:17:05.253Z,101961.41
2023-04-20T10:19:41.760Z,101957.66
2023-04-20T10:22:10.404Z,101955.38
2023-04-20T10:24:40.550Z,101957.66
2023-04-20T10:27:20.438Z,101963.69
2023-04-20T10:29:47.461Z,101953.88
2023-04-20T10:32:24.208Z,101955.38
2023-04-20T10:35:07.815Z,101959.16
2023-04-20T10:37:35.240Z,101950.47
2023-04-20T10:40:02.408Z,101949.31
2023-04-20T10:42:29.720Z,101933.88
2023-04-20T10:44:56.372Z,101931.22
2023-04-20T10:47:30.389Z,101931.22
2023-04-20T10:50:26.309Z,101925.56
2023-04-20T10:52:53.404Z,101933.88
2023-04-20T10:55:23.461Z,101926.31
2023-04-20T10:57:50.488Z,101919.91
2023-04-20T11:00:18.782Z,101924.06
2023-04-20T11:02:59.024Z,101906.28
2023-04-20T11:05:27.464Z,101913.44
2023-04-20T11:08:01.211Z,101909.69
2023-04-20T11:10:41.484Z,101909.34
2023-04-20T11:13:19.487Z,101896.47
2023-04-20T11:15:45.953Z,101894.97
2023-04-20T11:18:12.593Z,101891.56
2023-04-20T11:20:53.944Z,101898.00
2023-04-20T11:23:26.649Z,101894.25
2023-04-20T11:25:55.089Z,101898.78
2023-04-20T11:28:21.906Z,101898.00
2023-04-20T11:30:50.862Z,101890.44
2023-04-20T11:33:30.178Z,101887.03
2023-04-20T11:35:58.322Z,101891.59
2023-04-20T11:38:32.699Z,101880.28
2023-04-20T11:41:04.450Z,101884.44
2023-04-20T11:43:32.417Z,101883.28
2023-04-20T11:46:00.047Z,101875.00
2023-04-20T11:48:27.576Z,101879.50
2023-04-20T11:50:54.087Z,101861.38
2023-04-20T11:53:21.090Z,101875.75
2023-04-20T11:55:47.589Z,101873.81
2023-04-20T11:58:14.026Z,101870.81
2023-04-20T12:00:40.664Z,101878.75
2023-04-20T12:03:07.363Z,101881.78
2023-04-20T12:05:34.105Z,101882.50
2023-04-20T12:08:00.612Z,101876.84
2023-04-20T12:10:27.023Z,101875.34
2023-04-20T12:12:56.857Z,101877.22
2023-04-20T12:15:23.459Z,101874.19
2023-04-20T12:17:49.967Z,101876.84
2023-04-20T12:20:16.700Z,101879.13
2023-04-20T12:22:43.136Z,101874.94
2023-04-20T12:25:09.926Z,101877.59
2023-04-20T12:27:36.358Z,101876.47
2023-04-20T12:30:04.098Z,101876.47
2023-04-20T12:32:30.541Z,101876.84
2023-04-20T12:34:56.974Z,101868.19
2023-04-20T12:37:23.433Z,101867.41
2023-04-20T12:39:49.856Z,101867.41
2023-04-20T12:42:16.271Z,101868.53
2023-04-20T12:44:42.731Z,101866.63
2023-04-20T12:47:09.300Z,101861.38
2023-04-20T12:49:35.925Z,101856.09
2023-04-20T12:52:02.344Z,101862.13
2023-04-20T12:54:29.822Z,101861.00
2023-04-20T12:56:57.074Z,101864.78
2023-04-20T12:59:23.579Z,101859.09
2023-04-20T13:01:50.447Z,101863.25
2023-04-20T13:04:17.239Z,101864.03
2023-04-20T13:06:44.210Z,101858.34
2023-04-20T13:09:10.609Z,101852.28
2023-04-20T13:11:37.045Z,101858.38
2023-04-20T13:14:03.680Z,101849.69
2023-04-20T13:16:30.292Z,101849.69
2023-04-20T13:18:56.877Z,101845.53
2023-04-20T13:21:23.316Z,101847.78
2023-04-20T13:23:49.780Z,101845.53
2023-04-20T13:26:16.263Z,101848.94
2023-04-20T13:28:42.849Z,101831.94
2023-04-20T13:31:09.286Z,101852.31
2023-04-20T13:33:35.824Z,101854.97
2023-04-20T13:36:02.640Z,101851.22
2023-04-20T13:38:29.172Z,101841.00
2023-04-20T13:40:56.055Z,101839.88
2023-04-20T13:43:22.565Z,101844.41
2023-04-20T13:45:49.146Z,101834.97
2023-04-20T13:48:15.721Z,101830.03
2023-04-20T13:50:42.136Z,101825.91
2023-04-20T13:53:08.661Z,101824.38
2023-04-20T13:55:35.142Z,101823.63
2023-04-20T13:58:01.628Z,101824.38
2023-04-20T14:00:28.116Z,101822.50
2023-04-20T14:02:54.646Z,101809.31
2023-04-20T14:05:21.199Z,101818.34
2023-04-20T14:07:47.673Z,101815.72
2023-04-20T14:10:14.106Z,101816.47
2023-04-20T14:12:40.559Z,101805.91
2023-04-20T14:15:07.376Z,101816.84
2023-04-20T14:17:33.892Z,101820.22
2023-04-20T14:20:00.598Z,101818.75
2023-04-20T14:22:27.068Z,101810.41
2023-04-20T14:24:53.483Z,101811.19
2023-04-20T14:27:20.022Z,101810.81
2023-04-20T14:29:46.462Z,101805.91
2023-04-20T14:32:12.902Z,101806.66
2023-04-20T14:34:39.471Z,101804.38
2023-04-20T14:37:05.940Z,101801.75
2023-04-20T14:39:32.383Z,101805.91
2023-04-20T14:41:58.795Z,101797.22
2023-04-20T14:44:25.215Z,101796.88
2023-04-20T14:46:55.195Z,101797.25
2023-04-20T14:49:21.863Z,101801.03
2023-04-20T14:51:48.590Z,101799.50
2023-04-20T14:54:15.043Z,101796.50
2023-04-20T14:56:41.513Z,101797.25
2023-04-20T14:59:07.959Z,101798.72
2023-04-20T15:01:34.532Z,101790.81
2023-04-20T15:04:01.443Z,101795.72
2023-04-20T15:06:28.316Z,101787.44
2023-04-20T15:08:56.357Z,101787.81
2023-04-20T15:11:23.141Z,101785.91
2023-04-20T15:13:51.106Z,101787.41
2023-04-20T15:16:17.769Z,101780.66
2023-04-20T15:18:44.278Z,101783.28
2023-04-20T15:21:10.967Z,101781.38
2023-04-20T15:23:37.541Z,101779.88
2023-04-20T15:26:04.172Z,101793.47
2023-04-20T15:28:30.684Z,101788.19
2023-04-20T15:30:57.122Z,101781.38
2023-04-20T15:33:23.581Z,101773.81
2023-04-20T15:35:50.438Z,101776.06
2023-04-20T15:38:16.854Z,101773.81
2023-04-20T15:40:43.258Z,101770.78
2023-04-20T15:43:09.733Z,101770.03
2023-04-20T15:45:36.311Z,101770.78
2023-04-20T15:48:02.926Z,101770.75
2023-04-20T15:50:29.493Z,101767.03
2023-04-20T15:52:55.968Z,101768.53
2023-04-20T15:55:22.514Z,101770.41
2023-04-20T15:57:48.917Z,101773.41
2023-04-20T16:00:15.812Z,101777.94
2023-04-20T16:02:42.381Z,101777.19
2023-04-20T16:05:09.473Z,101774.53
2023-04-20T16:07:36.058Z,101774.56
2023-04-20T16:10:03.248Z,101773.03
2023-04-20T16:12:29.848Z,101767.72
2023-04-20T16:14:57.328Z,101773.78
2023-04-20T16:17:24.039Z,101768.50
2023-04-20T16:19:50.647Z,101763.16
2023-04-20T16:22:17.115Z,101769.97
2023-04-20T16:24:43.568Z,101764.66
2023-04-20T16:27:09.988Z,101764.66
2023-04-20T16:29:36.493Z,101769.97
2023-04-20T16:32:02.917Z,101765.06
2023-04-20T16:34:30.911Z,101771.09
2023-04-20T16:36:57.461Z,101771.88
2023-04-20T16:39:24.332Z,101766.25
2023-04-20T16:41:51.210Z,101768.94
2023-04-20T16:44:17.774Z,101767.06
2023-04-20T16:46:44.576Z,101757.97
2023-04-20T16:49:11.080Z,101762.16
2023-04-20T16:51:38.013Z,101763.28
2023-04-20T16:54:04.593Z,101762.91
2023-04-20T16:56:30.997Z,101761.75
2023-04-20T16:58:57.440Z,101760.97
2023-04-20T17:01:23.928Z,101768.13
2023-04-20T17:03:51.354Z,101759.06
2023-04-20T17:06:18.047Z,101768.50
2023-04-20T17:08:44.565Z,101760.97
2023-04-20T17:11:11.086Z,101771.94
2023-04-20T17:13:38.152Z,101771.53
2023-04-20T17:16:04.817Z,101765.13
2023-04-20T17:18:34.145Z,101771.56
2023-04-20T17:21:01.592Z,101770.81
2023-04-20T17:23:28.081Z,101773.44
2023-04-20T17:25:54.770Z,101767.81
2023-04-20T17:28:21.325Z,101770.78
2023-04-20T17:30:47.791Z,101765.13
2023-04-20T17:33:14.360Z,101759.44
2023-04-20T17:35:40.789Z,101766.59
2023-04-20T17:38:07.537Z,101758.69
2023-04-20T17:40:34.300Z,101759.84
2023-04-20T17:43:01.889Z,101778.34
2023-04-20T17:45:28.697Z,101776.84
2023-04-20T17:47:55.814Z,101771.91
2023-04-20T17:50:22.770Z,101776.06
2023-04-20T17:52:49.384Z,101779.81
2023-04-20T17:55:15.838Z,101783.63
2023-04-20T17:57:42.273Z,101788.91
2023-04-20T18:00:11.675Z,101794.97
2023-04-20T18:02:38.804Z,101802.88
2023-04-20T18:05:06.300Z,101794.56
2023-04-20T18:07:32.840Z,101788.91
2023-04-20T18:09:59.345Z,101793.06
2023-04-20T18:12:25.955Z,101801.75
2023-04-20T18:14:52.451Z,101795.72
2023-04-20T18:17:18.951Z,101804.78
2023-04-20T18:19:45.392Z,101792.72
2023-04-20T18:22:11.886Z,101798.00
2023-04-20T18:24:38.423Z,101795.34
2023-04-20T18:27:04.908Z,101789.31
2023-04-20T18:29:31.497Z,101792.31
2023-04-20T18:32:01.200Z,101789.31
2023-04-20T18:34:31.067Z,101788.91
2023-04-20T18:36:58.517Z,101794.97
2023-04-20T18:39:25.670Z,101790.06
2023-04-20T18:41:52.131Z,101793.84
2023-04-20T18:44:18.621Z,101799.88
2023-04-20T18:46:45.429Z,101794.97
2023-04-20T18:49:11.913Z,101799.13
2023-04-20T18:51:38.476Z,101788.94
2023-04-20T18:54:05.089Z,101802.88
2023-04-20T18:56:32.232Z,101798.78
2023-04-20T18:58:59.524Z,101797.25
2023-04-20T19:01:26.331Z,101805.19
2023-04-20T19:03:53.217Z,101811.25
2023-04-20T19:06:19.795Z,101813.88
2023-04-20T19:08:46.348Z,101815.00
2023-04-20T19:11:12.816Z,101819.50
2023-04-20T19:13:44.513Z,101814.22
2023-04-20T19:16:12.240Z,101818.78
2023-04-20T19:18:39.114Z,101819.50
2023-04-20T19:21:05.979Z,101816.88
2023-04-20T19:23:32.556Z,101822.16
2023-04-20T19:25:59.128Z,101820.63
2023-04-20T19:28:25.626Z,101823.28
2023-04-20T19:30:52.171Z,101813.84
2023-04-20T19:33:18.785Z,101803.69
2023-04-20T19:35:50.544Z,101805.56
2023-04-20T19:38:21.644Z,101800.66
2023-04-20T19:40:48.908Z,101802.91
2023-04-20T19:43:16.934Z,101814.63
2023-04-20T19:45:43.720Z,101816.88
2023-04-20T19:48:10.432Z,101816.50
2023-04-20T19:50:37.286Z,101818.78
2023-04-20T19:53:04.333Z,101815.38
2023-04-20T19:55:31.056Z,101818.72
2023-04-20T19:57:57.470Z,101815.34
2023-04-20T20:00:23.947Z,101822.91
2023-04-20T20:02:50.561Z,101828.97
2023-04-20T20:05:17.342Z,101838.00
2023-04-20T20:07:43.786Z,101827.03
2023-04-20T20:10:10.346Z,101819.88
2023-04-20T20:12:36.824Z,101832.72
2023-04-20T20:15:04.641Z,101828.19
2023-04-20T20:17:31.181Z,101830.06
2023-04-20T20:19:58.102Z,101828.19
2023-04-20T20:22:24.653Z,101817.63
2023-04-20T20:24:54.164Z,101813.09
2023-04-20T20:27:21.072Z,101803.28
2023-04-20T20:29:47.511Z,101804.03
2023-04-20T20:32:13.949Z,101798.72
2023-04-20T20:34:41.333Z,101793.84
2023-04-20T20:37:10.309Z,101789.69
2023-04-20T20:39:37.288Z,101789.69
2023-04-20T20:42:04.812Z,101801.78
2023-04-20T20:44:39.754Z,101804.03
2023-04-20T20:47:06.637Z,101793.84
2023-04-20T20:49:33.334Z,101788.19
2023-04-20T20:51:59.840Z,101788.19
2023-04-20T20:54:26.269Z,101791.97
2023-04-20T20:56:52.795Z,101791.97
2023-04-20T20:59:19.416Z,101788.19
2023-04-20T21:01:46.011Z,101784.06
2023-04-20T21:04:12.610Z,101783.28
2023-04-20T21:06:39.068Z,101790.81
2023-04-20T21:09:05.684Z,101786.28
2023-04-20T21:11:32.145Z,101774.97
2023-04-20T21:14:01.777Z,101776.47
2023-04-20T21:16:28.754Z,101779.91
2023-04-20T21:18:55.276Z,101771.22
2023-04-20T21:21:21.774Z,101770.03
2023-04-20T21:23:49.187Z,101774.56
2023-04-20T21:26:16.359Z,101783.63
2023-04-20T21:28:42.899Z,101777.59
2023-04-20T21:31:09.342Z,101770.44
2023-04-20T21:33:36.089Z,101766.28
2023-04-20T21:36:02.616Z,101750.06
2023-04-20T21:38:29.070Z,101762.13
2023-04-20T21:40:55.569Z,101759.84
2023-04-20T21:43:22.024Z,101768.56
2023-04-20T21:45:48.454Z,101775.72
2023-04-20T21:48:14.876Z,101776.47
2023-04-20T21:50:41.343Z,101771.19
2023-04-20T21:53:07.768Z,101776.09
2023-04-20T21:55:34.224Z,101777.63
2023-04-20T21:58:00.815Z,101783.66
2023-04-20T22:00:27.396Z,101797.63
2023-04-20T22:02:54.023Z,101799.09
2023-04-20T22:05:20.697Z,101807.41
2023-04-20T22:07:47.162Z,101798.75
2023-04-20T22:10:13.626Z,101790.47
2023-04-20T22:12:42.300Z,101788.94
2023-04-20T22:15:13.750Z,101794.59
2023-04-20T22:17:41.393Z,101792.69
2023-04-20T22:20:10.045Z,101795.72
2023-04-20T22:22:37.239Z,101798.72
2023-04-20T22:25:04.800Z,101795.72
2023-04-20T22:27:32.960Z,101801.75
2023-04-20T22:29:59.610Z,101793.44
2023-04-20T22:32:26.202Z,101783.25
2023-04-20T22:34:52.704Z,101780.59
2023-04-20T22:37:19.236Z,101783.59
2023-04-20T22:39:45.746Z,101777.59
2023-04-20T22:42:12.272Z,101779.13
2023-04-20T22:44:38.741Z,101770.81
2023-04-20T22:47:05.243Z,101767.75
2023-04-20T22:49:32.136Z,101768.53
2023-04-20T22:51:58.663Z,101762.47
2023-04-20T22:54:26.451Z,101763.63
2023-04-20T22:56:53.479Z,101758.34
2023-04-20T22:59:20.288Z,101750.06
2023-04-20T23:01:46.889Z,101758.38
2023-04-20T23:04:13.458Z,101756.47
2023-04-20T23:06:43.744Z,101748.56
2023-04-20T23:09:12.534Z,101744.38
2023-04-20T23:11:39.704Z,101742.88
2023-04-20T23:14:06.709Z,101738.34
2023-04-20T23:16:34.113Z,101717.97
2023-04-20T23:19:01.105Z,101722.84
2023-04-20T23:21:28.670Z,101719.09
2023-04-20T23:23:57.756Z,101705.91
2023-04-20T23:26:24.309Z,101687.41
2023-04-20T23:28:52.090Z,101671.19
2023-04-20T23:31:21.372Z,101672.31
2023-04-20T23:33:48.499Z,101673.84
2023-04-20T23:36:15.179Z,101672.31
2023-04-20T23:38:41.968Z,101673.47
2023-04-20T23:41:13.599Z,101661.41
2023-04-20T23:43:41.125Z,101668.94
2023-04-20T23:46:08.449Z,101666.69
2023-04-20T23:48:34.974Z,101679.13
2023-04-20T23:51:01.864Z,101680.25
2023-04-20T23:53:28.466Z,101680.25
2023-04-20T23:55:59.797Z,101684.78
2023-04-20T23:58:27.256Z,101687.03
